createdAt,value
2018-04-30T00:01:30.704Z,72.40
2018-04-30T00:05:34.067Z,72.30
2018-04-30T00:09:42.156Z,71.70
2018-04-30T00:13:48.965Z,71.60
2018-04-30T00:17:51.512Z,72.80
2018-04-30T00:21:54.051Z,72.60
2018-04-30T00:25:56.576Z,72.30
2018-04-30T00:29:59.852Z,71.90
2018-04-30T00:34:02.382Z,72.10
2018-04-30T00:38:04.906Z,72.80
2018-04-30T00:42:07.439Z,73.30
2018-04-30T00:46:09.975Z,71.80
2018-04-30T00:50:12.482Z,75.00
2018-04-30T00:54:26.920Z,75.20
2018-04-30T00:58:29.483Z,74.00
2018-04-30T01:02:32.006Z,73.00
2018-04-30T01:06:34.535Z,72.90
2018-04-30T01:10:37.819Z,73.60
2018-04-30T01:14:41.111Z,74.70
2018-04-30T01:18:43.638Z,75.10
2018-04-30T01:22:46.156Z,72.60
2018-04-30T01:26:48.687Z,74.00
2018-04-30T01:30:51.207Z,73.60
2018-04-30T01:34:53.734Z,76.40
2018-04-30T01:38:57.032Z,74.20
2018-04-30T01:42:59.560Z,74.00
2018-04-30T01:47:02.089Z,77.50
2018-04-30T01:51:04.615Z,74.80
2018-04-30T01:55:07.127Z,76.50
2018-04-30T01:59:09.650Z,73.20
2018-04-30T02:03:12.187Z,76.20
2018-04-30T02:07:14.723Z,74.00
2018-04-30T02:11:17.257Z,73.30
2018-04-30T02:15:19.776Z,73.90
2018-04-30T02:19:22.314Z,73.70
2018-04-30T02:23:24.843Z,76.80
2018-04-30T02:27:27.367Z,75.30
2018-04-30T02:31:30.667Z,74.10
2018-04-30T02:35:33.945Z,75.50
2018-04-30T02:39:36.481Z,75.30
2018-04-30T02:43:39.037Z,75.40
2018-04-30T02:47:41.593Z,74.40
2018-04-30T02:51:44.108Z,74.10
2018-04-30T02:55:46.643Z,76.30
2018-04-30T02:59:49.168Z,75.70
2018-04-30T03:03:52.468Z,74.30
2018-04-30T03:07:55.775Z,75.10
2018-04-30T03:11:58.316Z,74.90
2018-04-30T03:16:00.831Z,73.80
2018-04-30T03:20:03.358Z,78.50
2018-04-30T03:24:06.672Z,74.90
2018-04-30T03:28:09.207Z,74.10
2018-04-30T03:32:11.738Z,74.10
2018-04-30T03:36:14.251Z,74.30
2018-04-30T03:40:16.787Z,73.20
2018-04-30T03:44:19.311Z,74.70
2018-04-30T03:48:21.847Z,74.10
2018-04-30T03:52:25.144Z,74.20
2018-04-30T03:56:28.449Z,73.80
2018-04-30T04:00:43.491Z,74.40
2018-04-30T04:04:57.898Z,74.30
2018-04-30T04:09:01.192Z,73.80
2018-04-30T04:13:04.495Z,74.20
2018-04-30T04:17:07.795Z,74.40
2018-04-30T04:21:11.068Z,74.80
2018-04-30T04:25:13.598Z,74.90
2018-04-30T04:29:16.134Z,75.00
2018-04-30T04:33:18.659Z,73.90
2018-04-30T04:37:21.960Z,74.00
2018-04-30T04:41:24.479Z,73.90
2018-04-30T04:45:27.011Z,74.00
2018-04-30T04:49:29.543Z,74.10
2018-04-30T04:53:32.076Z,75.60
2018-04-30T04:57:34.613Z,74.20
2018-04-30T05:01:37.137Z,74.30
2018-04-30T05:05:39.674Z,74.60
2018-04-30T05:09:42.205Z,74.40
2018-04-30T05:13:44.740Z,74.20
2018-04-30T05:17:47.282Z,74.50
2018-04-30T05:21:49.810Z,74.20
2018-04-30T05:25:52.355Z,74.50
2018-04-30T05:29:54.883Z,74.20
2018-04-30T05:33:57.512Z,74.60
2018-04-30T05:38:00.742Z,75.90
2018-04-30T05:42:04.029Z,74.90
2018-04-30T05:46:06.563Z,74.80
2018-04-30T05:50:09.094Z,75.80
2018-04-30T05:54:11.629Z,75.30
2018-04-30T05:58:14.158Z,74.10
2018-04-30T06:02:16.671Z,74.10
2018-04-30T06:06:19.976Z,81.50
2018-04-30T06:10:23.287Z,75.70
2018-04-30T06:14:25.823Z,75.50
2018-04-30T06:18:29.135Z,75.40
2018-04-30T06:22:31.643Z,75.20
2018-04-30T06:26:35.870Z,75.70
2018-04-30T06:30:38.423Z,75.60
2018-04-30T06:34:40.959Z,76.80
2018-04-30T06:38:44.239Z,78.20
2018-04-30T08:00:29.643Z,79.50
2018-04-30T08:04:32.198Z,79.10
2018-04-30T08:08:34.813Z,80.00
2018-04-30T08:12:37.396Z,78.00
2018-04-30T08:16:39.922Z,80.60
2018-04-30T08:20:42.458Z,79.70
2018-04-30T08:24:45.751Z,79.60
2018-04-30T08:28:49.106Z,79.90
2018-04-30T08:32:51.625Z,80.20
2018-04-30T08:36:54.930Z,80.80
2018-04-30T08:40:57.454Z,80.80
2018-04-30T08:45:00.043Z,80.70
2018-04-30T08:49:02.530Z,79.30
2018-04-30T08:53:05.050Z,80.00
2018-04-30T08:57:07.583Z,79.10
2018-04-30T09:01:10.123Z,78.20
2018-04-30T09:05:12.657Z,79.50
2018-04-30T09:09:15.184Z,80.00
2018-04-30T09:13:17.703Z,79.50
2018-04-30T09:17:20.247Z,79.70
2018-04-30T09:21:22.914Z,80.30
2018-04-30T09:25:25.574Z,79.70
2018-04-30T09:29:28.115Z,80.30
2018-04-30T09:33:30.639Z,80.00
2018-04-30T09:37:33.943Z,79.80
2018-04-30T09:41:37.275Z,79.00
2018-04-30T09:45:39.819Z,79.20
2018-04-30T09:49:43.427Z,80.00
2018-04-30T09:53:46.727Z,79.40
2018-04-30T09:57:49.339Z,78.50
2018-04-30T10:01:51.807Z,78.40
2018-04-30T10:05:55.103Z,79.30
2018-04-30T10:09:58.404Z,78.80
2018-04-30T10:14:01.718Z,79.30
2018-04-30T10:18:04.232Z,79.30
2018-04-30T10:22:06.768Z,79.50
2018-04-30T10:26:09.302Z,79.20
2018-04-30T10:30:11.837Z,78.80
2018-04-30T10:34:14.370Z,77.60
2018-04-30T10:38:17.663Z,78.20
2018-04-30T10:42:20.197Z,78.10
2018-04-30T10:46:22.729Z,77.60
2018-04-30T10:50:25.263Z,78.00
2018-04-30T10:54:27.803Z,77.30
2018-04-30T10:58:30.318Z,76.70
2018-04-30T11:02:32.913Z,76.40
2018-04-30T11:06:35.402Z,76.70
2018-04-30T11:10:37.928Z,76.10
2018-04-30T11:14:40.509Z,76.00
2018-04-30T11:18:43.789Z,76.30
2018-04-30T11:22:46.324Z,76.30
2018-04-30T11:26:49.192Z,77.10
2018-04-30T11:30:51.972Z,77.60
2018-04-30T11:34:54.553Z,77.60
2018-04-30T11:38:57.843Z,76.30
2018-04-30T11:43:00.386Z,76.30
2018-04-30T11:47:04.097Z,76.00
2018-04-30T11:51:06.603Z,76.20
2018-04-30T11:55:09.154Z,76.10
2018-04-30T11:59:11.680Z,75.80
2018-04-30T12:03:14.219Z,75.60
2018-04-30T12:07:16.758Z,75.50
2018-04-30T12:11:19.302Z,76.50
2018-04-30T12:15:21.851Z,75.50
2018-04-30T12:19:26.380Z,74.10
2018-04-30T12:23:29.702Z,74.30
2018-04-30T12:27:32.248Z,74.30
2018-04-30T12:31:34.807Z,74.10
2018-04-30T12:35:37.347Z,74.20
2018-04-30T12:39:39.899Z,72.50
2018-04-30T12:43:43.119Z,73.40
2018-04-30T12:47:46.428Z,72.40
2018-04-30T12:51:48.966Z,72.30
2018-04-30T12:55:51.524Z,70.80
2018-04-30T12:59:54.068Z,69.00
2018-04-30T13:03:56.592Z,68.40
2018-04-30T13:07:59.150Z,70.30
2018-04-30T13:12:01.700Z,67.50
2018-04-30T13:16:04.246Z,68.80
2018-04-30T13:20:06.783Z,66.70
2018-04-30T13:24:09.287Z,69.30
2018-04-30T13:28:12.589Z,68.50
2018-04-30T13:32:15.115Z,68.20
2018-04-30T13:36:17.658Z,63.60
2018-04-30T13:40:20.958Z,67.80
2018-04-30T13:44:23.488Z,67.90
2018-04-30T13:48:26.044Z,63.80
2018-04-30T13:52:29.344Z,68.70
2018-04-30T13:56:32.715Z,69.30
2018-04-30T14:00:35.238Z,69.20
2018-04-30T14:04:38.528Z,67.60
2018-04-30T14:08:41.079Z,67.20
2018-04-30T14:12:43.612Z,68.20
2018-04-30T14:16:46.142Z,66.20
2018-04-30T14:20:48.680Z,63.30
2018-04-30T14:24:51.210Z,65.40
2018-04-30T14:28:53.763Z,64.30
2018-04-30T14:32:56.342Z,61.30
2018-04-30T14:36:58.875Z,66.40
2018-04-30T14:41:01.411Z,65.00
2018-04-30T14:45:03.927Z,63.30
2018-04-30T14:49:06.461Z,64.10
2018-04-30T14:53:09.772Z,60.00
2018-04-30T14:57:13.072Z,63.00
2018-04-30T15:01:16.372Z,61.90
2018-04-30T15:05:19.650Z,61.30
2018-04-30T15:09:22.182Z,61.50
2018-04-30T15:13:24.735Z,60.90
2018-04-30T15:17:27.255Z,60.00
2018-04-30T15:21:29.802Z,63.50
2018-04-30T15:25:32.342Z,58.80
2018-04-30T15:29:34.855Z,64.10
2018-04-30T15:33:37.391Z,61.20
2018-04-30T15:37:39.934Z,63.70
2018-04-30T15:41:42.467Z,60.10
2018-04-30T15:45:45.009Z,61.00
2018-04-30T15:49:47.533Z,58.60
2018-04-30T15:53:50.084Z,60.50
2018-04-30T15:57:53.391Z,56.00
2018-04-30T16:01:56.691Z,59.90
2018-04-30T16:05:59.223Z,58.70
2018-04-30T16:10:01.734Z,57.60
2018-04-30T16:14:04.274Z,58.30
2018-04-30T16:18:06.820Z,56.10
2018-04-30T16:22:09.367Z,58.90
2018-04-30T16:26:11.908Z,61.80
2018-04-30T16:30:15.189Z,60.40
2018-04-30T16:34:17.723Z,59.80
2018-04-30T16:38:20.254Z,56.40
2018-04-30T16:42:24.074Z,57.90
2018-04-30T16:46:26.607Z,56.10
2018-04-30T16:50:29.156Z,60.50
2018-04-30T16:54:31.691Z,55.40
2018-04-30T16:58:34.320Z,56.60
2018-04-30T17:02:36.861Z,55.90
2018-04-30T17:06:39.411Z,59.20
2018-04-30T17:10:42.712Z,59.60
2018-04-30T17:14:46.015Z,56.80
2018-04-30T17:18:49.295Z,58.20
2018-04-30T17:22:51.828Z,58.30
2018-04-30T17:26:54.396Z,58.50
2018-04-30T17:30:56.928Z,58.60
2018-04-30T17:34:59.473Z,59.60
2018-04-30T17:39:02.074Z,59.60
2018-04-30T17:43:04.583Z,61.40
2018-04-30T17:47:07.131Z,61.90
2018-04-30T17:51:09.663Z,61.00
2018-04-30T17:55:12.197Z,58.40
2018-04-30T17:59:14.748Z,57.50
2018-04-30T18:03:17.259Z,58.20
2018-04-30T18:07:19.798Z,58.80
2018-04-30T18:11:22.340Z,58.80
2018-04-30T18:15:24.929Z,60.30
2018-04-30T18:19:27.463Z,60.60
2018-04-30T18:23:30.146Z,60.40
2018-04-30T18:27:32.688Z,61.70
2018-04-30T18:31:35.218Z,61.10
2018-04-30T18:35:37.755Z,60.00
2018-04-30T18:39:40.340Z,61.30
2018-04-30T18:43:42.911Z,61.40
2018-04-30T18:47:46.208Z,60.00
2018-04-30T18:51:49.502Z,61.70
2018-04-30T18:55:52.803Z,60.80
2018-04-30T18:59:56.096Z,61.80
2018-04-30T19:03:59.388Z,62.00
2018-04-30T19:08:01.969Z,62.00
2018-04-30T19:12:04.475Z,61.00
2018-04-30T19:16:07.782Z,61.60
2018-04-30T19:20:10.336Z,62.10
2018-04-30T19:24:12.849Z,62.80
2018-04-30T19:28:17.415Z,62.80
2018-04-30T19:32:19.951Z,62.70
2018-04-30T19:36:24.666Z,62.20
2018-04-30T19:40:27.194Z,63.30
2018-04-30T19:44:33.364Z,63.40
2018-04-30T19:48:37.722Z,63.50
2018-04-30T19:52:40.267Z,63.50
2018-04-30T19:56:43.703Z,63.60
2018-04-30T20:00:48.515Z,63.10
2018-04-30T20:04:51.790Z,63.80
2018-04-30T20:08:54.520Z,63.70
2018-04-30T20:12:58.824Z,63.50
2018-04-30T20:17:01.359Z,63.80
2018-04-30T20:21:03.894Z,63.70
2018-04-30T20:25:06.612Z,63.40
2018-04-30T20:29:09.150Z,63.50
2018-04-30T20:33:11.690Z,63.30
2018-04-30T20:37:14.225Z,63.80
2018-04-30T20:41:16.746Z,63.80
2018-04-30T20:45:20.031Z,64.00
2018-04-30T20:49:22.580Z,63.90
2018-04-30T20:53:25.113Z,63.80
2018-04-30T20:57:27.663Z,64.10
2018-04-30T21:01:30.199Z,64.00
2018-04-30T21:05:32.707Z,64.20
2018-04-30T21:09:35.244Z,64.60
2018-04-30T21:13:38.553Z,64.50
2018-04-30T21:17:41.940Z,64.50
2018-04-30T21:21:44.404Z,64.50
2018-04-30T21:25:46.927Z,64.50
2018-04-30T21:29:49.464Z,64.50
2018-04-30T21:33:51.992Z,64.90
2018-04-30T21:37:55.288Z,65.10
2018-04-30T21:41:57.823Z,65.10
2018-04-30T21:46:00.362Z,64.90
2018-04-30T21:50:03.719Z,65.60
2018-04-30T21:54:06.254Z,65.50
2018-04-30T21:58:09.548Z,65.30
2018-04-30T22:02:12.059Z,65.30
2018-04-30T22:06:14.592Z,65.10
2018-04-30T22:10:17.120Z,65.20
2018-04-30T22:14:20.420Z,64.30
2018-04-30T22:18:23.706Z,63.70
2018-04-30T22:22:26.207Z,63.60
2018-04-30T22:26:29.500Z,63.30
2018-04-30T22:30:32.792Z,62.70
2018-04-30T22:34:35.327Z,62.80
2018-04-30T22:38:37.868Z,62.70
2018-04-30T22:42:41.166Z,62.30
2018-04-30T22:46:43.693Z,62.20
2018-04-30T22:50:46.250Z,62.00
2018-04-30T22:54:49.531Z,62.40
2018-04-30T22:58:52.107Z,62.30
2018-04-30T23:02:54.634Z,62.20
2018-04-30T23:06:57.159Z,62.70
2018-04-30T23:10:59.688Z,62.80
2018-04-30T23:15:02.981Z,62.40
2018-04-30T23:19:05.551Z,62.30
2018-04-30T23:23:08.096Z,62.50
2018-04-30T23:27:10.599Z,62.30
2018-04-30T23:31:13.138Z,62.30
2018-04-30T23:35:15.671Z,62.00
2018-04-30T23:39:18.198Z,62.10
2018-04-30T23:43:21.495Z,61.20
2018-04-30T23:47:24.776Z,60.80
2018-04-30T23:51:27.302Z,60.70
2018-04-30T23:55:29.831Z,60.90
2018-04-30T23:59:32.357Z,61.20
